createdAt,value
2022-12-03T00:08:19.845Z,13.88
2022-12-03T00:23:25.316Z,13.48
2022-12-03T00:38:27.700Z,14.57
2022-12-03T00:53:32.880Z,13.23
2022-12-03T01:08:34.912Z,13.90
2022-12-03T01:23:36.893Z,13.15
2022-12-03T01:38:38.891Z,14.70
2022-12-03T01:53:41.055Z,13.70
2022-12-03T05:31:56.201Z,14.30
2022-12-03T05:46:58.199Z,15.77
2022-12-03T06:02:00.244Z,15.40
2022-12-03T06:17:02.692Z,15.10
2022-12-03T06:32:05.054Z,14.25
2022-12-03T06:47:07.020Z,13.90
2022-12-03T07:02:10.144Z,14.57
2022-12-03T07:17:12.169Z,15.45
2022-12-03T07:32:14.148Z,14.32
2022-12-03T07:47:16.180Z,14.70
2022-12-03T08:02:21.823Z,17.05
2022-12-03T08:17:24.169Z,17.48
2022-12-03T08:32:26.266Z,24.55
2022-12-03T08:47:29.565Z,19.17
2022-12-03T09:02:33.162Z,18.15
2022-12-03T09:17:35.168Z,17.60
2022-12-03T09:32:37.668Z,20.45
2022-12-03T09:47:40.468Z,16.52
2022-12-03T10:02:42.432Z,20.40
2022-12-03T10:17:45.714Z,22.83
2022-12-03T10:32:49.162Z,17.77
2022-12-03T10:48:05.958Z,21.55
2022-12-03T11:03:31.205Z,18.10
2022-12-03T11:18:43.021Z,17.73
2022-12-03T11:33:45.182Z,16.52
2022-12-03T11:48:47.445Z,17.13
2022-12-03T12:03:50.120Z,15.43
2022-12-03T12:18:56.380Z,17.38
2022-12-03T12:33:58.805Z,19.05
2022-12-03T12:49:01.068Z,18.35
2022-12-03T13:04:04.140Z,16.48
2022-12-03T13:19:16.744Z,17.45
2022-12-03T13:34:24.458Z,18.52
2022-12-03T13:49:26.802Z,20.15
2022-12-03T14:04:28.913Z,20.58
2022-12-03T14:19:31.792Z,20.08
2022-12-03T14:34:33.809Z,18.92
2022-12-03T14:49:38.165Z,18.70
2022-12-03T15:04:41.389Z,20.02
2022-12-03T15:19:43.366Z,19.38
2022-12-03T15:34:45.399Z,18.88
2022-12-03T15:49:48.573Z,17.50
2022-12-03T16:04:50.556Z,18.77
2022-12-03T16:19:52.856Z,18.42
2022-12-03T16:34:55.186Z,19.67
2022-12-03T16:49:57.208Z,17.98
2022-12-03T17:04:59.482Z,19.58
2022-12-03T17:20:01.613Z,21.75
2022-12-03T17:35:05.007Z,22.50
2022-12-03T17:50:07.876Z,21.85
2022-12-03T18:05:10.562Z,22.42
2022-12-03T18:20:12.923Z,19.48
2022-12-03T18:35:19.235Z,20.70
2022-12-03T18:50:21.292Z,20.60
2022-12-03T19:05:24.423Z,20.60
2022-12-03T19:20:26.518Z,20.73
2022-12-03T19:35:28.698Z,19.40
2022-12-03T19:50:30.820Z,19.70
2022-12-03T20:05:37.725Z,18.10
2022-12-03T20:20:39.723Z,17.48
2022-12-03T20:35:42.245Z,16.77
2022-12-03T20:50:44.279Z,16.25
2022-12-03T21:05:46.306Z,15.70
2022-12-03T21:20:50.022Z,17.38
2022-12-03T21:35:52.314Z,17.27
2022-12-03T21:51:04.071Z,17.00
2022-12-03T22:06:06.282Z,16.60
2022-12-03T22:21:10.269Z,17.73
2022-12-03T22:36:18.283Z,15.68
2022-12-03T22:51:24.602Z,16.13
2022-12-03T23:06:26.934Z,15.45
2022-12-03T23:21:30.926Z,13.80
2022-12-03T23:36:33.361Z,14.02
2022-12-03T23:51:35.499Z,13.13
